Etusivu
METAR-TAF:

METAR-TAF

Lentoasemat :

Challis Airport

Challis, Idaho, Yhdysvallat

Leveyspiiri: 44-31-22N, Pituuspiiri: 114-12-54W, korkeus merenpinnasta: 1546 m

Tämänhetkinen sää

Tämä raportti tehtiin 19 minuuttia sitten, kello 13.55 UTC
tyyntä
Lämpötila -2°C
Kosteus 80%
Ilmanpaine 1015 hPa
Näkyvyys: 16.1 km
Muutamia pilviä 6000 ft:n korkeudessa

METAR: KLLJ 301355Z AUTO 00000KT 10SM FEW060 M02/M05 A2998 RMK AO2 SLP162 T10171050

Aika: 08:14 (14:14 UTC)


TAF: puuttuu

Säähavainnot ja -ennusteet yli 4000 lentoasemalta (METAR- ja TAF-raportit).

Käytössä olevat sääasemat on merkitty karttaan keltaisilla ja punaisilla pisteillä.

Aseta hiiri pisteen päälle nähdäksesi sääaseman nimen.

Klikkaa sitten nähdäksesi säähavainnot ja -ennusteet.

Kartan vaihtaminen: klikkaa mustalla rastilla varustettuja vihreitä pisteitä, niin voit zoomata sisään; viivalla varustettua vihreää pistettä, niin voit zoomata ulos tai vihreitä nuolia, niin pääset viereisille kartoille.


METAR-TAF: